sensor_id;sensor_type;location;lat;lon;timestamp;pressure;altitude;pressure_sealevel;temperature;humidity
30110;BME280;14965;50.660;13.226;2022-09-13T00:00:17;94711.69;;;11.58;87.23
30110;BME280;14965;50.660;13.226;2022-09-13T00:02:43;94716.91;;;11.56;87.22
30110;BME280;14965;50.660;13.226;2022-09-13T00:05:10;94709.50;;;11.53;87.59
30110;BME280;14965;50.660;13.226;2022-09-13T00:07:36;94715.03;;;11.53;87.92
30110;BME280;14965;50.660;13.226;2022-09-13T00:10:03;94710.59;;;11.55;87.83
30110;BME280;14965;50.660;13.226;2022-09-13T00:12:29;94715.25;;;11.58;87.86
30110;BME280;14965;50.660;13.226;2022-09-13T00:14:55;94704.50;;;11.60;87.65
30110;BME280;14965;50.660;13.226;2022-09-13T00:17:21;94707.59;;;11.62;87.86
30110;BME280;14965;50.660;13.226;2022-09-13T00:19:46;94686.66;;;11.61;87.66
30110;BME280;14965;50.660;13.226;2022-09-13T00:22:14;94685.91;;;11.61;87.51
30110;BME280;14965;50.660;13.226;2022-09-13T00:24:39;94687.00;;;11.63;87.39
30110;BME280;14965;50.660;13.226;2022-09-13T00:27:05;94690.53;;;11.64;87.34
30110;BME280;14965;50.660;13.226;2022-09-13T00:29:31;94687.31;;;11.65;87.50
30110;BME280;14965;50.660;13.226;2022-09-13T00:31:57;94690.09;;;11.65;87.45
30110;BME280;14965;50.660;13.226;2022-09-13T00:34:23;94696.38;;;11.66;87.37
30110;BME280;14965;50.660;13.226;2022-09-13T00:36:48;94685.78;;;11.64;87.54
30110;BME280;14965;50.660;13.226;2022-09-13T00:39:16;94667.31;;;11.61;87.14
30110;BME280;14965;50.660;13.226;2022-09-13T00:41:41;94667.44;;;11.58;87.59
30110;BME280;14965;50.660;13.226;2022-09-13T00:44:49;94668.34;;;11.55;87.30
30110;BME280;14965;50.660;13.226;2022-09-13T00:47:25;94662.94;;;11.51;87.39
30110;BME280;14965;50.660;13.226;2022-09-13T00:49:56;94660.00;;;11.45;87.72
30110;BME280;14965;50.660;13.226;2022-09-13T00:52:27;94656.56;;;11.41;87.80
30110;BME280;14965;50.660;13.226;2022-09-13T00:55:02;94653.59;;;11.36;88.36
30110;BME280;14965;50.660;13.226;2022-09-13T00:57:32;94652.94;;;11.32;88.28
30110;BME280;14965;50.660;13.226;2022-09-13T01:00:05;94654.63;;;11.29;88.59
30110;BME280;14965;50.660;13.226;2022-09-13T01:02:32;94650.44;;;11.25;88.62
30110;BME280;14965;50.660;13.226;2022-09-13T01:04:58;94647.03;;;11.20;88.49
30110;BME280;14965;50.660;13.226;2022-09-13T01:07:24;94648.69;;;11.18;88.89
30110;BME280;14965;50.660;13.226;2022-09-13T01:09:52;94652.81;;;11.13;88.66
30110;BME280;14965;50.660;13.226;2022-09-13T01:12:31;94645.88;;;11.09;88.80
30110;BME280;14965;50.660;13.226;2022-09-13T01:15:03;94645.53;;;11.07;88.87
30110;BME280;14965;50.660;13.226;2022-09-13T01:17:32;94647.22;;;11.04;89.28
30110;BME280;14965;50.660;13.226;2022-09-13T01:19:59;94649.63;;;11.02;89.21
30110;BME280;14965;50.660;13.226;2022-09-13T01:22:59;94656.03;;;10.99;89.32
30110;BME280;14965;50.660;13.226;2022-09-13T01:26:07;94654.97;;;10.96;89.80
30110;BME280;14965;50.660;13.226;2022-09-13T01:32:11;94642.59;;;10.88;90.05
30110;BME280;14965;50.660;13.226;2022-09-13T01:34:52;94650.53;;;10.86;90.27
30110;BME280;14965;50.660;13.226;2022-09-13T01:37:40;94642.41;;;10.83;90.27
30110;BME280;14965;50.660;13.226;2022-09-13T01:40:24;94631.47;;;10.79;90.32
30110;BME280;14965;50.660;13.226;2022-09-13T01:43:14;94637.09;;;10.76;90.18
30110;BME280;14965;50.660;13.226;2022-09-13T01:45:53;94627.28;;;10.75;90.35
30110;BME280;14965;50.660;13.226;2022-09-13T01:48:31;94629.69;;;10.72;90.33
30110;BME280;14965;50.660;13.226;2022-09-13T01:51:03;94619.88;;;10.71;90.54
30110;BME280;14965;50.660;13.226;2022-09-13T01:53:39;94619.53;;;10.69;90.41
30110;BME280;14965;50.660;13.226;2022-09-13T01:56:22;94623.22;;;10.66;90.54
30110;BME280;14965;50.660;13.226;2022-09-13T01:58:56;94614.59;;;10.64;90.67
30110;BME280;14965;50.660;13.226;2022-09-13T02:01:29;94614.28;;;10.62;90.70
30110;BME280;14965;50.660;13.226;2022-09-13T02:04:02;94614.69;;;10.61;90.91
30110;BME280;14965;50.660;13.226;2022-09-13T02:06:35;94615.91;;;10.60;91.11
30110;BME280;14965;50.660;13.226;2022-09-13T02:09:09;94608.41;;;10.60;91.01
30110;BME280;14965;50.660;13.226;2022-09-13T02:11:38;94616.69;;;10.60;91.22
30110;BME280;14965;50.660;13.226;2022-09-13T02:14:12;94609.63;;;10.59;91.15
30110;BME280;14965;50.660;13.226;2022-09-13T02:16:43;94616.38;;;10.58;91.20
30110;BME280;14965;50.660;13.226;2022-09-13T02:19:19;94612.84;;;10.58;91.03
30110;BME280;14965;50.660;13.226;2022-09-13T02:21:52;94599.47;;;10.56;91.13
30110;BME280;14965;50.660;13.226;2022-09-13T02:24:26;94595.81;;;10.59;91.23
30110;BME280;14965;50.660;13.226;2022-09-13T02:26:57;94600.00;;;10.64;90.94
30110;BME280;14965;50.660;13.226;2022-09-13T02:29:28;94599.13;;;10.67;90.70
30110;BME280;14965;50.660;13.226;2022-09-13T02:31:59;94601.13;;;10.66;90.38
30110;BME280;14965;50.660;13.226;2022-09-13T02:34:37;94599.69;;;10.62;90.13
30110;BME280;14965;50.660;13.226;2022-09-13T02:37:07;94605.34;;;10.58;90.19
30110;BME280;14965;50.660;13.226;2022-09-13T02:39:37;94601.91;;;10.54;90.23
30110;BME280;14965;50.660;13.226;2022-09-13T02:42:11;94597.72;;;10.50;90.46
30110;BME280;14965;50.660;13.226;2022-09-13T02:44:43;94596.16;;;10.48;90.78
30110;BME280;14965;50.660;13.226;2022-09-13T02:47:24;94593.53;;;10.45;90.62
30110;BME280;14965;50.660;13.226;2022-09-13T02:50:06;94589.22;;;10.44;90.67
30110;BME280;14965;50.660;13.226;2022-09-13T02:52:42;94593.97;;;10.43;90.53
30110;BME280;14965;50.660;13.226;2022-09-13T02:55:17;94589.97;;;10.44;90.89
30110;BME280;14965;50.660;13.226;2022-09-13T02:57:56;94591.88;;;10.47;91.01
30110;BME280;14965;50.660;13.226;2022-09-13T03:00:25;94594.50;;;10.51;90.89
30110;BME280;14965;50.660;13.226;2022-09-13T03:02:53;94591.63;;;10.55;91.22
30110;BME280;14965;50.660;13.226;2022-09-13T03:05:22;94585.22;;;10.58;91.23
30110;BME280;14965;50.660;13.226;2022-09-13T03:07:49;94581.56;;;10.61;91.48
30110;BME280;14965;50.660;13.226;2022-09-13T03:10:16;94573.16;;;10.64;91.42
30110;BME280;14965;50.660;13.226;2022-09-13T03:13:23;94587.31;;;10.66;91.45
30110;BME280;14965;50.660;13.226;2022-09-13T03:16:05;94568.63;;;10.70;91.48
30110;BME280;14965;50.660;13.226;2022-09-13T03:18:50;94570.34;;;10.77;91.51
30110;BME280;14965;50.660;13.226;2022-09-13T03:21:37;94560.72;;;10.82;91.60
30110;BME280;14965;50.660;13.226;2022-09-13T03:24:17;94558.19;;;10.87;91.63
30110;BME280;14965;50.660;13.226;2022-09-13T03:27:04;94560.78;;;10.91;91.41
30110;BME280;14965;50.660;13.226;2022-09-13T03:29:41;94559.59;;;10.92;91.27
30110;BME280;14965;50.660;13.226;2022-09-13T03:32:25;94551.31;;;10.92;91.43
30110;BME280;14965;50.660;13.226;2022-09-13T03:35:06;94546.97;;;10.91;91.34
30110;BME280;14965;50.660;13.226;2022-09-13T03:37:46;94550.66;;;10.88;91.55
30110;BME280;14965;50.660;13.226;2022-09-13T03:40:35;94544.38;;;10.87;91.73
30110;BME280;14965;50.660;13.226;2022-09-13T03:43:10;94538.84;;;10.87;91.78
30110;BME280;14965;50.660;13.226;2022-09-13T03:45:42;94544.22;;;10.91;91.88
30110;BME280;14965;50.660;13.226;2022-09-13T03:48:11;94536.72;;;10.91;92.22
30110;BME280;14965;50.660;13.226;2022-09-13T03:50:39;94539.03;;;10.93;92.41
30110;BME280;14965;50.660;13.226;2022-09-13T03:53:10;94527.22;;;10.92;92.48
30110;BME280;14965;50.660;13.226;2022-09-13T03:55:40;94528.28;;;10.95;92.34
30110;BME280;14965;50.660;13.226;2022-09-13T03:58:18;94522.75;;;10.95;92.70
30110;BME280;14965;50.660;13.226;2022-09-13T04:00:45;94533.38;;;10.96;92.99
30110;BME280;14965;50.660;13.226;2022-09-13T04:03:12;94536.47;;;10.98;93.04
30110;BME280;14965;50.660;13.226;2022-09-13T04:05:39;94528.94;;;10.99;93.10
30110;BME280;14965;50.660;13.226;2022-09-13T04:08:07;94533.25;;;11.00;93.30
30110;BME280;14965;50.660;13.226;2022-09-13T04:10:35;94541.56;;;11.00;93.19
30110;BME280;14965;50.660;13.226;2022-09-13T04:13:01;94540.31;;;11.01;93.14
30110;BME280;14965;50.660;13.226;2022-09-13T04:15:29;94538.31;;;11.02;93.17
30110;BME280;14965;50.660;13.226;2022-09-13T04:17:55;94538.31;;;11.02;93.39
30110;BME280;14965;50.660;13.226;2022-09-13T04:20:20;94545.38;;;11.03;93.52
30110;BME280;14965;50.660;13.226;2022-09-13T04:22:50;94548.91;;;11.03;93.26
30110;BME280;14965;50.660;13.226;2022-09-13T04:25:18;94550.50;;;11.04;93.55
30110;BME280;14965;50.660;13.226;2022-09-13T04:27:44;94541.84;;;11.02;93.53
30110;BME280;14965;50.660;13.226;2022-09-13T04:30:11;94542.19;;;11.04;93.34
30110;BME280;14965;50.660;13.226;2022-09-13T04:32:37;94550.78;;;11.06;93.86
30110;BME280;14965;50.660;13.226;2022-09-13T04:35:04;94550.78;;;11.06;93.83
30110;BME280;14965;50.660;13.226;2022-09-13T04:37:30;94566.94;;;11.08;93.79
30110;BME280;14965;50.660;13.226;2022-09-13T04:39:56;94562.94;;;11.09;93.60
30110;BME280;14965;50.660;13.226;2022-09-13T04:42:23;94561.25;;;11.11;93.94
30110;BME280;14965;50.660;13.226;2022-09-13T04:44:49;94563.13;;;11.14;94.08
30110;BME280;14965;50.660;13.226;2022-09-13T04:47:15;94559.47;;;11.17;94.29
30110;BME280;14965;50.660;13.226;2022-09-13T04:49:41;94559.34;;;11.21;94.04
30110;BME280;14965;50.660;13.226;2022-09-13T04:52:06;94561.19;;;11.24;93.95
30110;BME280;14965;50.660;13.226;2022-09-13T04:54:32;94553.13;;;11.30;94.16
30110;BME280;14965;50.660;13.226;2022-09-13T04:56:58;94559.94;;;11.38;94.08
30110;BME280;14965;50.660;13.226;2022-09-13T04:59:25;94552.91;;;11.46;93.97
30110;BME280;14965;50.660;13.226;2022-09-13T05:01:51;94547.91;;;11.54;93.62
30110;BME280;14965;50.660;13.226;2022-09-13T05:04:17;94532.09;;;11.63;93.30
30110;BME280;14965;50.660;13.226;2022-09-13T05:06:43;94530.91;;;11.73;93.31
30110;BME280;14965;50.660;13.226;2022-09-13T05:09:12;94538.06;;;11.84;92.92
30110;BME280;14965;50.660;13.226;2022-09-13T05:11:39;94542.41;;;11.94;92.90
30110;BME280;14965;50.660;13.226;2022-09-13T05:14:05;94541.38;;;12.01;92.52
30110;BME280;14965;50.660;13.226;2022-09-13T05:16:33;94546.78;;;12.13;91.87
30110;BME280;14965;50.660;13.226;2022-09-13T05:18:59;94534.22;;;12.21;91.09
30110;BME280;14965;50.660;13.226;2022-09-13T05:21:26;94537.75;;;12.31;90.94
30110;BME280;14965;50.660;13.226;2022-09-13T05:23:53;94531.47;;;12.40;90.68
30110;BME280;14965;50.660;13.226;2022-09-13T05:26:21;94528.56;;;12.53;90.05
30110;BME280;14965;50.660;13.226;2022-09-13T05:28:47;94520.59;;;12.64;89.55
30110;BME280;14965;50.660;13.226;2022-09-13T05:31:17;94523.97;;;12.77;88.76
30110;BME280;14965;50.660;13.226;2022-09-13T05:33:47;94519.53;;;12.89;88.27
30110;BME280;14965;50.660;13.226;2022-09-13T05:36:17;94526.59;;;12.99;87.84
30110;BME280;14965;50.660;13.226;2022-09-13T05:38:43;94514.28;;;13.09;87.28
30110;BME280;14965;50.660;13.226;2022-09-13T05:41:08;94520.44;;;13.13;86.63
30110;BME280;14965;50.660;13.226;2022-09-13T05:43:35;94529.22;;;13.21;86.18
30110;BME280;14965;50.660;13.226;2022-09-13T05:46:04;94529.69;;;13.29;85.70
30110;BME280;14965;50.660;13.226;2022-09-13T05:48:32;94532.13;;;13.36;85.54
30110;BME280;14965;50.660;13.226;2022-09-13T05:51:06;94528.72;;;13.41;85.55
30110;BME280;14965;50.660;13.226;2022-09-13T05:53:32;94529.69;;;13.38;84.86
30110;BME280;14965;50.660;13.226;2022-09-13T05:55:59;94533.06;;;13.42;84.97
30110;BME280;14965;50.660;13.226;2022-09-13T05:58:25;94527.03;;;13.43;84.96
30110;BME280;14965;50.660;13.226;2022-09-13T06:00:52;94517.47;;;13.44;84.94
30110;BME280;14965;50.660;13.226;2022-09-13T06:03:18;94517.31;;;13.48;84.85
30110;BME280;14965;50.660;13.226;2022-09-13T06:05:44;94514.84;;;13.50;84.93
30110;BME280;14965;50.660;13.226;2022-09-13T06:08:12;94510.97;;;13.57;84.86
30110;BME280;14965;50.660;13.226;2022-09-13T06:10:37;94515.13;;;13.61;84.92
30110;BME280;14965;50.660;13.226;2022-09-13T06:13:03;94502.00;;;13.71;84.82
30110;BME280;14965;50.660;13.226;2022-09-13T06:15:29;94509.94;;;13.87;84.47
30110;BME280;14965;50.660;13.226;2022-09-13T06:17:55;94511.41;;;14.07;83.95
30110;BME280;14965;50.660;13.226;2022-09-13T06:20:20;94501.09;;;14.31;83.07
30110;BME280;14965;50.660;13.226;2022-09-13T06:22:46;94502.50;;;14.60;82.18
30110;BME280;14965;50.660;13.226;2022-09-13T06:25:14;94504.00;;;14.85;80.58
30110;BME280;14965;50.660;13.226;2022-09-13T06:27:40;94491.47;;;15.04;80.27
30110;BME280;14965;50.660;13.226;2022-09-13T06:30:07;94494.47;;;15.15;79.20
30110;BME280;14965;50.660;13.226;2022-09-13T06:32:33;94498.59;;;15.20;79.26
30110;BME280;14965;50.660;13.226;2022-09-13T06:34:59;94499.59;;;15.32;79.17
30110;BME280;14965;50.660;13.226;2022-09-13T06:37:26;94485.19;;;15.48;78.26
30110;BME280;14965;50.660;13.226;2022-09-13T06:39:51;94487.19;;;15.62;77.78
30110;BME280;14965;50.660;13.226;2022-09-13T06:42:18;94490.84;;;15.54;76.95
30110;BME280;14965;50.660;13.226;2022-09-13T06:44:44;94485.00;;;15.52;77.39
30110;BME280;14965;50.660;13.226;2022-09-13T06:47:10;94493.91;;;15.41;77.45
30110;BME280;14965;50.660;13.226;2022-09-13T06:49:36;94486.53;;;15.38;77.59
30110;BME280;14965;50.660;13.226;2022-09-13T06:52:02;94476.47;;;15.40;78.61
30110;BME280;14965;50.660;13.226;2022-09-13T06:54:28;94481.16;;;15.49;78.41
30110;BME280;14965;50.660;13.226;2022-09-13T06:56:54;94487.31;;;15.53;77.98
30110;BME280;14965;50.660;13.226;2022-09-13T06:59:21;94479.25;;;15.55;76.82
30110;BME280;14965;50.660;13.226;2022-09-13T07:01:47;94484.44;;;15.48;77.64
30110;BME280;14965;50.660;13.226;2022-09-13T07:04:15;94492.03;;;15.47;77.90
30110;BME280;14965;50.660;13.226;2022-09-13T07:06:44;94487.91;;;15.42;78.27
30110;BME280;14965;50.660;13.226;2022-09-13T07:09:12;94484.31;;;15.42;78.83
30110;BME280;14965;50.660;13.226;2022-09-13T07:11:41;94483.66;;;15.47;78.83
30110;BME280;14965;50.660;13.226;2022-09-13T07:14:07;94485.47;;;15.50;79.41
30110;BME280;14965;50.660;13.226;2022-09-13T07:16:37;94484.34;;;15.57;78.88
30110;BME280;14965;50.660;13.226;2022-09-13T07:19:06;94498.53;;;15.59;78.84
30110;BME280;14965;50.660;13.226;2022-09-13T07:21:33;94494.63;;;15.65;78.98
30110;BME280;14965;50.660;13.226;2022-09-13T07:24:00;94494.81;;;15.77;77.34
30110;BME280;14965;50.660;13.226;2022-09-13T07:26:27;94493.44;;;15.87;76.33
30110;BME280;14965;50.660;13.226;2022-09-13T07:28:55;94496.69;;;16.00;76.06
30110;BME280;14965;50.660;13.226;2022-09-13T07:31:23;94492.06;;;16.12;75.26
30110;BME280;14965;50.660;13.226;2022-09-13T07:33:55;94492.44;;;16.19;75.88
30110;BME280;14965;50.660;13.226;2022-09-13T07:36:23;94488.19;;;16.24;74.03
30110;BME280;14965;50.660;13.226;2022-09-13T07:38:49;94493.91;;;16.35;75.09
30110;BME280;14965;50.660;13.226;2022-09-13T07:41:17;94504.94;;;16.44;74.68
30110;BME280;14965;50.660;13.226;2022-09-13T07:43:44;94503.31;;;16.38;74.41
30110;BME280;14965;50.660;13.226;2022-09-13T07:46:13;94508.22;;;16.43;74.51
30110;BME280;14965;50.660;13.226;2022-09-13T07:48:41;94517.06;;;16.41;74.59
30110;BME280;14965;50.660;13.226;2022-09-13T07:51:10;94500.88;;;16.46;73.95
30110;BME280;14965;50.660;13.226;2022-09-13T07:53:38;94504.09;;;16.59;74.64
30110;BME280;14965;50.660;13.226;2022-09-13T07:56:07;94499.13;;;16.83;73.41
30110;BME280;14965;50.660;13.226;2022-09-13T07:58:36;94497.28;;;17.01;72.95
30110;BME280;14965;50.660;13.226;2022-09-13T08:01:04;94503.50;;;17.10;72.65
30110;BME280;14965;50.660;13.226;2022-09-13T08:03:32;94503.38;;;16.99;71.66
30110;BME280;14965;50.660;13.226;2022-09-13T08:05:57;94504.56;;;16.92;72.41
30110;BME280;14965;50.660;13.226;2022-09-13T08:08:25;94501.34;;;16.79;72.36
30110;BME280;14965;50.660;13.226;2022-09-13T08:10:50;94505.13;;;16.76;74.18
30110;BME280;14965;50.660;13.226;2022-09-13T08:13:16;94505.16;;;16.61;73.33
30110;BME280;14965;50.660;13.226;2022-09-13T08:15:42;94504.03;;;16.53;73.47
30110;BME280;14965;50.660;13.226;2022-09-13T08:18:08;94504.66;;;16.42;73.13
30110;BME280;14965;50.660;13.226;2022-09-13T08:20:35;94502.34;;;16.41;73.36
30110;BME280;14965;50.660;13.226;2022-09-13T08:23:01;94508.22;;;16.43;74.38
30110;BME280;14965;50.660;13.226;2022-09-13T08:25:28;94506.47;;;16.46;74.59
30110;BME280;14965;50.660;13.226;2022-09-13T08:27:54;94505.84;;;16.36;73.83
30110;BME280;14965;50.660;13.226;2022-09-13T08:30:20;94512.09;;;16.31;74.21
30110;BME280;14965;50.660;13.226;2022-09-13T08:32:49;94515.56;;;16.26;75.04
30110;BME280;14965;50.660;13.226;2022-09-13T08:35:15;94521.53;;;16.18;75.07
30110;BME280;14965;50.660;13.226;2022-09-13T08:37:41;94521.66;;;16.09;76.18
30110;BME280;14965;50.660;13.226;2022-09-13T08:40:08;94521.56;;;16.04;77.67
30110;BME280;14965;50.660;13.226;2022-09-13T08:42:53;94523.31;;;16.01;79.14
30110;BME280;14965;50.660;13.226;2022-09-13T08:45:26;94529.84;;;15.98;81.51
30110;BME280;14965;50.660;13.226;2022-09-13T08:47:56;94529.19;;;15.88;82.62
30110;BME280;14965;50.660;13.226;2022-09-13T08:50:27;94530.59;;;15.84;83.83
30110;BME280;14965;50.660;13.226;2022-09-13T08:53:07;94530.81;;;15.80;85.11
30110;BME280;14965;50.660;13.226;2022-09-13T08:55:52;94530.31;;;15.82;86.34
30110;BME280;14965;50.660;13.226;2022-09-13T08:58:48;94537.03;;;15.90;86.87
30110;BME280;14965;50.660;13.226;2022-09-13T09:01:32;94526.06;;;16.16;86.54
30110;BME280;14965;50.660;13.226;2022-09-13T09:04:11;94523.13;;;16.40;86.90
30110;BME280;14965;50.660;13.226;2022-09-13T09:06:41;94515.56;;;16.61;86.64
30110;BME280;14965;50.660;13.226;2022-09-13T09:09:13;94504.00;;;16.88;86.75
30110;BME280;14965;50.660;13.226;2022-09-13T09:11:49;94503.41;;;17.25;86.44
30110;BME280;14965;50.660;13.226;2022-09-13T09:14:28;94497.06;;;17.51;85.46
30110;BME280;14965;50.660;13.226;2022-09-13T09:16:59;94495.66;;;17.61;83.35
30110;BME280;14965;50.660;13.226;2022-09-13T09:19:33;94490.31;;;17.63;81.64
30110;BME280;14965;50.660;13.226;2022-09-13T09:22:05;94487.09;;;17.70;81.28
30110;BME280;14965;50.660;13.226;2022-09-13T09:24:37;94484.44;;;17.81;80.31
30110;BME280;14965;50.660;13.226;2022-09-13T09:27:14;94475.69;;;18.05;79.70
30110;BME280;14965;50.660;13.226;2022-09-13T09:29:43;94478.66;;;18.28;78.93
30110;BME280;14965;50.660;13.226;2022-09-13T09:32:28;94463.75;;;18.42;77.18
30110;BME280;14965;50.660;13.226;2022-09-13T09:35:11;94469.63;;;18.50;76.51
30110;BME280;14965;50.660;13.226;2022-09-13T09:37:45;94472.09;;;18.36;74.91
30110;BME280;14965;50.660;13.226;2022-09-13T09:40:15;94463.63;;;18.20;76.36
30110;BME280;14965;50.660;13.226;2022-09-13T09:42:44;94463.84;;;18.16;77.79
30110;BME280;14965;50.660;13.226;2022-09-13T09:45:26;94454.78;;;18.27;78.98
30110;BME280;14965;50.660;13.226;2022-09-13T09:47:55;94466.22;;;18.29;78.46
30110;BME280;14965;50.660;13.226;2022-09-13T09:50:27;94463.16;;;18.27;77.71
30110;BME280;14965;50.660;13.226;2022-09-13T09:53:00;94464.09;;;18.18;76.40
30110;BME280;14965;50.660;13.226;2022-09-13T09:55:30;94456.66;;;18.04;75.35
30110;BME280;14965;50.660;13.226;2022-09-13T09:57:58;94448.59;;;18.17;75.58
30110;BME280;14965;50.660;13.226;2022-09-13T10:00:28;94449.97;;;18.33;75.33
30110;BME280;14965;50.660;13.226;2022-09-13T10:02:58;94455.34;;;18.42;73.72
30110;BME280;14965;50.660;13.226;2022-09-13T10:05:26;94449.31;;;18.55;73.48
30110;BME280;14965;50.660;13.226;2022-09-13T10:07:56;94443.78;;;18.66;73.67
30110;BME280;14965;50.660;13.226;2022-09-13T10:10:29;94445.44;;;18.89;73.55
30110;BME280;14965;50.660;13.226;2022-09-13T10:12:59;94445.00;;;19.19;70.83
30110;BME280;14965;50.660;13.226;2022-09-13T10:15:28;94439.44;;;19.41;70.16
30110;BME280;14965;50.660;13.226;2022-09-13T10:18:15;94440.97;;;19.59;69.83
30110;BME280;14965;50.660;13.226;2022-09-13T10:20:59;94441.28;;;19.84;66.24
30110;BME280;14965;50.660;13.226;2022-09-13T10:23:25;94445.34;;;19.94;65.43
30110;BME280;14965;50.660;13.226;2022-09-13T10:26:08;94441.25;;;20.01;66.41
30110;BME280;14965;50.660;13.226;2022-09-13T10:28:42;94446.88;;;20.12;64.72
30110;BME280;14965;50.660;13.226;2022-09-13T10:31:13;94441.28;;;19.95;63.64
30110;BME280;14965;50.660;13.226;2022-09-13T10:33:43;94436.44;;;19.73;63.95
30110;BME280;14965;50.660;13.226;2022-09-13T10:36:16;94451.16;;;19.51;66.47
30110;BME280;14965;50.660;13.226;2022-09-13T10:38:51;94448.09;;;19.44;65.45
30110;BME280;14965;50.660;13.226;2022-09-13T10:41:25;94448.09;;;19.44;65.35
30110;BME280;14965;50.660;13.226;2022-09-13T10:43:56;94441.28;;;19.67;67.80
30110;BME280;14965;50.660;13.226;2022-09-13T10:46:28;94441.28;;;19.95;64.05
30110;BME280;14965;50.660;13.226;2022-09-13T10:48:54;94433.09;;;20.14;64.65
30110;BME280;14965;50.660;13.226;2022-09-13T10:51:32;94431.00;;;20.43;64.39
30110;BME280;14965;50.660;13.226;2022-09-13T10:54:17;94428.84;;;20.77;61.61
30110;BME280;14965;50.660;13.226;2022-09-13T10:56:43;94421.09;;;21.00;62.72
30110;BME280;14965;50.660;13.226;2022-09-13T10:59:18;94416.44;;;21.13;62.88
30110;BME280;14965;50.660;13.226;2022-09-13T11:02:26;94415.31;;;21.33;62.39
30110;BME280;14965;50.660;13.226;2022-09-13T11:05:20;94426.50;;;21.39;61.20
30110;BME280;14965;50.660;13.226;2022-09-13T11:08:24;94426.03;;;21.35;61.91
30110;BME280;14965;50.660;13.226;2022-09-13T11:11:08;94410.41;;;21.45;56.65
30110;BME280;14965;50.660;13.226;2022-09-13T11:13:54;94408.34;;;21.46;57.39
30110;BME280;14965;50.660;13.226;2022-09-13T11:16:40;94405.16;;;21.60;58.81
30110;BME280;14965;50.660;13.226;2022-09-13T11:19:40;94418.63;;;21.37;55.22
30110;BME280;14965;50.660;13.226;2022-09-13T11:22:32;94398.16;;;21.43;58.70
30110;BME280;14965;50.660;13.226;2022-09-13T11:25:30;94391.66;;;21.59;56.25
30110;BME280;14965;50.660;13.226;2022-09-13T11:28:08;94394.94;;;21.63;58.40
30110;BME280;14965;50.660;13.226;2022-09-13T11:33:49;94373.78;;;21.56;56.51
30110;BME280;14965;50.660;13.226;2022-09-13T11:36:55;94375.78;;;21.61;54.69
30110;BME280;14965;50.660;13.226;2022-09-13T11:39:31;94388.56;;;21.62;57.82
30110;BME280;14965;50.660;13.226;2022-09-13T11:42:14;94384.03;;;21.54;56.76
30110;BME280;14965;50.660;13.226;2022-09-13T11:45:22;94393.63;;;21.64;57.83
30110;BME280;14965;50.660;13.226;2022-09-13T11:48:15;94397.50;;;21.61;55.36
30110;BME280;14965;50.660;13.226;2022-09-13T11:50:56;94405.97;;;21.55;56.30
30110;BME280;14965;50.660;13.226;2022-09-13T11:53:50;94394.25;;;21.51;56.56
30110;BME280;14965;50.660;13.226;2022-09-13T11:56:23;94400.19;;;21.42;57.87
30110;BME280;14965;50.660;13.226;2022-09-13T11:58:58;94389.19;;;21.44;57.64
30110;BME280;14965;50.660;13.226;2022-09-13T12:01:32;94382.19;;;21.56;57.61
30110;BME280;14965;50.660;13.226;2022-09-13T12:04:06;94385.31;;;21.53;56.60
30110;BME280;14965;50.660;13.226;2022-09-13T12:06:39;94382.97;;;21.57;56.45
30110;BME280;14965;50.660;13.226;2022-09-13T12:09:16;94380.06;;;21.68;56.04
30110;BME280;14965;50.660;13.226;2022-09-13T12:11:51;94375.75;;;21.67;56.56
30110;BME280;14965;50.660;13.226;2022-09-13T12:14:22;94381.09;;;21.71;56.33
30110;BME280;14965;50.660;13.226;2022-09-13T12:16:54;94378.75;;;21.75;56.14
30110;BME280;14965;50.660;13.226;2022-09-13T12:19:27;94384.84;;;21.79;56.32
30110;BME280;14965;50.660;13.226;2022-09-13T12:21:58;94386.09;;;21.78;53.83
30110;BME280;14965;50.660;13.226;2022-09-13T12:24:36;94377.13;;;21.55;55.04
30110;BME280;14965;50.660;13.226;2022-09-13T12:27:09;94374.72;;;21.34;53.53
30110;BME280;14965;50.660;13.226;2022-09-13T12:29:44;94375.47;;;21.35;52.75
30110;BME280;14965;50.660;13.226;2022-09-13T12:32:13;94369.63;;;21.27;53.85
30110;BME280;14965;50.660;13.226;2022-09-13T12:34:45;94362.72;;;21.34;52.58
30110;BME280;14965;50.660;13.226;2022-09-13T12:40:53;94370.69;;;21.19;51.97
30110;BME280;14965;50.660;13.226;2022-09-13T12:43:59;94362.59;;;21.09;51.99
30110;BME280;14965;50.660;13.226;2022-09-13T12:47:15;94365.34;;;21.21;52.50
30110;BME280;14965;50.660;13.226;2022-09-13T12:50:05;94360.03;;;21.53;53.24
30110;BME280;14965;50.660;13.226;2022-09-13T12:52:44;94355.91;;;21.84;51.46
30110;BME280;14965;50.660;13.226;2022-09-13T12:55:57;94361.59;;;21.78;51.93
30110;BME280;14965;50.660;13.226;2022-09-13T12:58:51;94365.81;;;21.60;52.20
30110;BME280;14965;50.660;13.226;2022-09-13T13:01:22;94366.88;;;21.57;53.08
30110;BME280;14965;50.660;13.226;2022-09-13T13:03:53;94357.25;;;21.47;51.19
30110;BME280;14965;50.660;13.226;2022-09-13T13:06:29;94362.31;;;21.54;53.42
30110;BME280;14965;50.660;13.226;2022-09-13T13:09:01;94354.09;;;21.56;51.09
30110;BME280;14965;50.660;13.226;2022-09-13T13:11:43;94362.03;;;21.58;51.09
30110;BME280;14965;50.660;13.226;2022-09-13T13:14:29;94371.06;;;21.45;52.45
30110;BME280;14965;50.660;13.226;2022-09-13T13:17:44;94364.50;;;21.37;51.50
30110;BME280;14965;50.660;13.226;2022-09-13T13:21:06;94375.59;;;21.12;51.79
30110;BME280;14965;50.660;13.226;2022-09-13T13:23:34;94371.28;;;21.06;53.85
30110;BME280;14965;50.660;13.226;2022-09-13T13:26:09;94367.72;;;21.05;53.69
30110;BME280;14965;50.660;13.226;2022-09-13T13:29:16;94370.00;;;21.12;52.72
30110;BME280;14965;50.660;13.226;2022-09-13T13:32:09;94356.72;;;21.13;52.92